createdAt,value
2023-04-30T00:00:49.592Z,7.17
2023-04-30T00:03:16.181Z,8.07
2023-04-30T00:05:42.723Z,7.33
2023-04-30T00:08:09.227Z,7.53
2023-04-30T00:10:35.738Z,7.50
2023-04-30T00:13:02.277Z,7.10
2023-04-30T00:15:28.915Z,6.60
2023-04-30T00:17:55.495Z,7.47
2023-04-30T00:20:22.051Z,7.20
2023-04-30T00:22:48.937Z,7.30
2023-04-30T00:25:16.790Z,7.53
2023-04-30T00:27:43.268Z,6.83
2023-04-30T00:30:09.927Z,7.30
2023-04-30T00:32:36.504Z,7.57
2023-04-30T00:35:03.176Z,7.13
2023-04-30T00:37:29.684Z,7.70
2023-04-30T00:39:58.404Z,7.37
2023-04-30T00:42:24.905Z,7.53
2023-04-30T00:44:51.371Z,7.17
2023-04-30T00:47:18.266Z,7.60
2023-04-30T00:49:44.918Z,6.93
2023-04-30T00:52:11.609Z,7.33
2023-04-30T00:54:38.264Z,7.70
2023-04-30T00:57:05.849Z,7.80
2023-04-30T00:59:32.977Z,7.57
2023-04-30T01:01:59.538Z,7.73
2023-04-30T01:04:26.477Z,7.63
2023-04-30T01:06:53.226Z,6.97
2023-04-30T01:09:19.927Z,7.63
2023-04-30T01:12:04.772Z,7.40
2023-04-30T01:14:34.016Z,7.23
2023-04-30T01:17:00.889Z,7.57
2023-04-30T01:19:44.337Z,7.07
2023-04-30T01:22:24.150Z,7.77
2023-04-30T01:24:57.151Z,7.43
2023-04-30T01:27:28.232Z,6.93
2023-04-30T01:29:58.310Z,6.77
2023-04-30T01:32:24.886Z,7.70
2023-04-30T01:34:51.421Z,7.83
2023-04-30T01:37:22.668Z,8.17
2023-04-30T01:39:56.144Z,7.60
2023-04-30T01:42:25.870Z,7.23
2023-04-30T01:45:19.102Z,7.67
2023-04-30T01:47:48.906Z,7.90
2023-04-30T01:50:31.405Z,8.33
2023-04-30T01:53:02.161Z,7.87
2023-04-30T01:55:32.907Z,7.80
2023-04-30T01:58:05.312Z,7.73
2023-04-30T02:00:31.887Z,7.77
2023-04-30T02:02:58.900Z,7.47
2023-04-30T02:05:25.894Z,7.13
2023-04-30T02:07:52.688Z,8.20
2023-04-30T02:10:19.652Z,7.60
2023-04-30T02:12:46.185Z,9.07
2023-04-30T02:15:13.017Z,8.07
2023-04-30T02:17:39.541Z,7.60
2023-04-30T02:20:07.299Z,7.50
2023-04-30T02:22:34.178Z,7.83
2023-04-30T02:25:00.760Z,8.40
2023-04-30T02:27:27.612Z,7.80
2023-04-30T02:29:54.488Z,8.53
2023-04-30T02:32:21.291Z,8.10
2023-04-30T02:34:47.981Z,6.70
2023-04-30T02:37:14.673Z,8.13
2023-04-30T02:39:41.717Z,7.83
2023-04-30T02:42:08.289Z,8.50
2023-04-30T02:44:34.868Z,7.27
2023-04-30T02:47:01.806Z,8.53
2023-04-30T02:49:28.544Z,8.63
2023-04-30T02:51:55.132Z,9.60
2023-04-30T02:54:22.081Z,10.13
2023-04-30T02:56:48.591Z,10.13
2023-04-30T02:59:15.393Z,11.47
2023-04-30T03:01:42.306Z,11.50
2023-04-30T03:04:08.990Z,13.13
2023-04-30T03:06:36.140Z,14.10
2023-04-30T03:09:02.845Z,13.37
2023-04-30T03:11:29.368Z,13.67
2023-04-30T03:13:56.016Z,11.73
2023-04-30T03:16:22.656Z,11.00
2023-04-30T03:18:49.747Z,10.27
2023-04-30T03:21:16.277Z,9.17
2023-04-30T03:23:43.420Z,9.50
2023-04-30T03:26:09.954Z,9.70
2023-04-30T03:28:36.438Z,9.70
2023-04-30T03:31:05.992Z,8.87
2023-04-30T03:33:33.365Z,9.10
2023-04-30T03:36:00.035Z,9.37
2023-04-30T03:38:26.685Z,8.43
2023-04-30T03:40:53.458Z,9.07
2023-04-30T03:43:20.062Z,8.57
2023-04-30T03:45:46.715Z,8.77
2023-04-30T03:48:13.521Z,8.57
2023-04-30T03:50:40.174Z,9.17
2023-04-30T03:53:06.686Z,9.07
2023-04-30T03:55:34.108Z,9.37
2023-04-30T03:58:00.805Z,8.37
2023-04-30T04:00:27.388Z,9.20
2023-04-30T04:02:54.072Z,8.77
2023-04-30T04:05:20.693Z,9.30
2023-04-30T04:07:47.406Z,8.97
2023-04-30T04:10:13.966Z,9.37
2023-04-30T04:12:40.800Z,8.77
2023-04-30T04:15:07.668Z,8.20
2023-04-30T04:17:34.168Z,8.17
2023-04-30T04:20:00.628Z,8.87
2023-04-30T04:22:30.164Z,8.13
2023-04-30T04:24:56.784Z,9.00
2023-04-30T04:27:23.731Z,9.00
2023-04-30T04:29:50.332Z,8.80
2023-04-30T04:32:16.848Z,8.37
2023-04-30T04:34:44.202Z,9.00
2023-04-30T04:37:11.282Z,9.23
2023-04-30T04:39:38.253Z,9.63
2023-04-30T04:42:05.248Z,9.60
2023-04-30T04:44:32.509Z,9.40
2023-04-30T04:46:59.134Z,9.90
2023-04-30T04:49:26.190Z,9.37
2023-04-30T04:51:52.673Z,9.77
2023-04-30T04:54:19.200Z,9.07
2023-04-30T04:56:45.740Z,8.67
2023-04-30T04:59:13.040Z,8.70
2023-04-30T05:01:39.865Z,8.57
2023-04-30T05:04:06.450Z,8.37
2023-04-30T05:06:33.245Z,8.50
2023-04-30T05:09:00.328Z,9.20
2023-04-30T05:11:27.142Z,9.10
2023-04-30T05:13:53.617Z,9.10
2023-04-30T05:16:20.294Z,8.50
2023-04-30T05:18:46.854Z,8.40
2023-04-30T05:21:13.400Z,8.80
2023-04-30T05:23:39.943Z,8.57
2023-04-30T05:26:06.545Z,8.53
2023-04-30T05:28:34.058Z,8.80
2023-04-30T05:31:00.678Z,8.60
2023-04-30T05:33:27.950Z,8.40
2023-04-30T05:35:54.429Z,8.67
2023-04-30T05:38:21.148Z,8.80
2023-04-30T05:40:47.615Z,8.17
2023-04-30T05:43:14.214Z,8.23
2023-04-30T05:45:41.070Z,7.90
2023-04-30T05:48:07.587Z,8.60
2023-04-30T05:50:34.251Z,8.30
2023-04-30T05:53:01.117Z,8.13
2023-04-30T05:55:27.673Z,8.93
2023-04-30T05:57:54.154Z,8.10
2023-04-30T06:00:20.781Z,7.80
2023-04-30T06:02:47.526Z,8.57
2023-04-30T06:05:16.146Z,8.27
2023-04-30T06:07:42.927Z,8.60
2023-04-30T06:10:10.341Z,8.07
2023-04-30T06:12:36.832Z,9.03
2023-04-30T06:15:03.653Z,8.87
2023-04-30T06:17:30.146Z,8.20
2023-04-30T06:19:58.723Z,8.40
2023-04-30T06:22:25.189Z,8.83
2023-04-30T06:24:51.662Z,7.80
2023-04-30T06:27:18.665Z,8.07
2023-04-30T06:29:47.704Z,7.57
2023-04-30T06:32:14.265Z,9.17
2023-04-30T06:34:40.905Z,8.50
2023-04-30T06:37:07.528Z,7.97
2023-04-30T06:39:34.079Z,8.40
2023-04-30T06:42:01.650Z,8.60
2023-04-30T06:44:28.230Z,7.93
2023-04-30T06:46:54.770Z,8.17
2023-04-30T06:49:21.246Z,8.07
2023-04-30T06:51:47.738Z,7.90
2023-04-30T06:54:14.600Z,8.07
2023-04-30T06:56:41.455Z,7.90
2023-04-30T06:59:07.922Z,8.17
2023-04-30T07:01:34.508Z,7.90
2023-04-30T07:04:01.739Z,7.47
2023-04-30T07:06:31.022Z,7.93
2023-04-30T07:08:57.797Z,7.77
2023-04-30T07:11:24.592Z,8.43
2023-04-30T07:13:51.584Z,6.80
2023-04-30T07:16:18.260Z,7.90
2023-04-30T07:18:44.851Z,8.10
2023-04-30T07:21:11.381Z,8.10
2023-04-30T07:23:38.283Z,7.70
2023-04-30T07:26:04.981Z,8.07
2023-04-30T07:28:31.451Z,7.50
2023-04-30T07:30:57.953Z,8.17
2023-04-30T07:33:26.660Z,7.93
2023-04-30T07:35:54.664Z,8.20
2023-04-30T07:38:21.861Z,7.90
2023-04-30T07:40:50.760Z,7.33
2023-04-30T07:43:17.226Z,6.77
2023-04-30T07:45:44.619Z,7.70
2023-04-30T07:48:11.273Z,7.10
2023-04-30T07:50:37.903Z,7.40
2023-04-30T07:53:05.389Z,7.30
2023-04-30T07:55:31.950Z,7.03
2023-04-30T07:57:59.063Z,7.57
2023-04-30T08:00:26.614Z,8.27
2023-04-30T08:02:53.442Z,7.83
2023-04-30T08:05:20.204Z,7.70
2023-04-30T08:07:46.945Z,8.10
2023-04-30T08:10:13.712Z,8.00
2023-04-30T08:12:40.289Z,7.70
2023-04-30T08:15:07.807Z,7.27
2023-04-30T08:17:34.608Z,6.93
2023-04-30T08:20:01.727Z,7.43
2023-04-30T08:22:28.292Z,6.83
2023-04-30T08:24:55.860Z,6.80
2023-04-30T08:27:22.702Z,6.90
2023-04-30T08:29:49.290Z,7.07
2023-04-30T08:32:16.026Z,7.60
2023-04-30T08:34:43.764Z,7.50
2023-04-30T08:37:10.692Z,7.27
2023-04-30T08:39:37.219Z,7.40
2023-04-30T08:42:08.564Z,7.90
2023-04-30T08:44:36.737Z,7.60
2023-04-30T08:47:03.913Z,7.27
2023-04-30T08:49:33.396Z,6.80
2023-04-30T08:52:02.448Z,6.83
2023-04-30T08:54:32.436Z,7.83
2023-04-30T08:56:59.118Z,6.87
2023-04-30T08:59:25.608Z,7.50
2023-04-30T09:01:53.849Z,8.00
2023-04-30T09:04:23.138Z,7.67
2023-04-30T09:06:52.571Z,7.23
2023-04-30T09:09:19.128Z,6.67
2023-04-30T09:11:45.769Z,6.83
2023-04-30T09:14:12.966Z,6.57
2023-04-30T09:16:51.577Z,6.33
2023-04-30T09:19:25.455Z,5.80
2023-04-30T09:21:52.260Z,5.30
2023-04-30T09:24:18.906Z,4.77
2023-04-30T09:26:47.763Z,4.87
2023-04-30T09:29:14.512Z,3.70
2023-04-30T09:31:45.478Z,3.77
2023-04-30T09:34:12.132Z,3.07
2023-04-30T09:36:51.377Z,4.00
2023-04-30T09:39:18.375Z,4.37
2023-04-30T09:41:44.994Z,4.30
2023-04-30T09:44:32.208Z,3.70
2023-04-30T09:46:59.541Z,3.90
2023-04-30T09:49:27.503Z,4.33
2023-04-30T09:51:56.016Z,4.90
2023-04-30T09:54:30.690Z,4.83
2023-04-30T09:57:01.902Z,4.50
2023-04-30T09:59:41.093Z,4.50
2023-04-30T10:02:08.552Z,4.30
2023-04-30T10:04:40.101Z,4.53
2023-04-30T10:07:09.080Z,4.80
2023-04-30T10:09:48.418Z,4.47
2023-04-30T10:12:16.085Z,4.33
2023-04-30T10:14:45.844Z,3.93
2023-04-30T10:17:14.500Z,3.60
2023-04-30T10:19:45.546Z,3.83
2023-04-30T10:22:14.678Z,3.80
2023-04-30T10:24:42.340Z,3.30
2023-04-30T10:27:08.951Z,3.30
2023-04-30T10:29:35.464Z,3.90
2023-04-30T10:32:02.256Z,3.80
2023-04-30T10:34:47.669Z,3.63
2023-04-30T10:37:29.843Z,3.57
2023-04-30T10:39:57.034Z,2.93
2023-04-30T10:42:23.663Z,2.83
2023-04-30T10:44:50.517Z,3.03
2023-04-30T10:47:17.223Z,2.77
2023-04-30T10:49:48.790Z,3.20
2023-04-30T10:52:26.265Z,2.70
2023-04-30T10:54:52.801Z,3.10
2023-04-30T10:57:22.868Z,2.73
2023-04-30T11:00:16.001Z,2.87
2023-04-30T11:02:44.219Z,3.53
2023-04-30T11:05:12.435Z,3.00
2023-04-30T11:07:49.310Z,3.27
2023-04-30T11:10:16.799Z,3.77
2023-04-30T11:12:50.209Z,3.37
2023-04-30T11:15:18.492Z,3.83
2023-04-30T11:17:48.565Z,3.20
2023-04-30T11:20:19.279Z,3.03
2023-04-30T11:22:45.816Z,3.70
2023-04-30T11:25:15.740Z,3.90
2023-04-30T11:27:43.787Z,4.23
2023-04-30T11:30:19.459Z,4.27
2023-04-30T11:32:47.914Z,3.37
2023-04-30T11:35:17.441Z,3.50
2023-04-30T11:37:45.032Z,4.27
2023-04-30T11:40:12.643Z,3.70
2023-04-30T11:42:40.178Z,3.80
2023-04-30T11:45:09.932Z,3.83
2023-04-30T11:47:43.715Z,3.27
2023-04-30T11:50:12.420Z,3.30
2023-04-30T11:52:39.537Z,3.23
2023-04-30T11:55:16.932Z,3.00
2023-04-30T11:57:44.589Z,2.80
2023-04-30T12:00:15.219Z,3.40
2023-04-30T12:02:42.589Z,2.83
2023-04-30T12:05:13.760Z,2.97
2023-04-30T12:07:40.271Z,2.43
2023-04-30T12:10:07.180Z,2.10
2023-04-30T12:12:36.853Z,1.70
2023-04-30T12:15:14.305Z,2.20
2023-04-30T12:17:41.179Z,2.33
2023-04-30T12:20:08.906Z,2.53
2023-04-30T12:22:35.959Z,2.67
2023-04-30T12:25:06.303Z,2.40
2023-04-30T12:27:35.608Z,2.30
2023-04-30T12:30:11.389Z,2.23
2023-04-30T12:32:42.142Z,2.23
2023-04-30T12:35:09.645Z,2.23
2023-04-30T12:37:36.534Z,2.30
2023-04-30T12:40:03.513Z,1.80
2023-04-30T12:42:36.009Z,2.20
2023-04-30T12:45:07.391Z,1.77
2023-04-30T12:47:39.008Z,2.10
2023-04-30T12:50:07.642Z,2.17
2023-04-30T12:52:34.314Z,1.80
2023-04-30T12:55:21.450Z,2.40
2023-04-30T12:58:02.930Z,2.80
2023-04-30T13:00:29.457Z,1.90
2023-04-30T13:02:56.055Z,2.30
2023-04-30T13:05:23.034Z,2.03
2023-04-30T13:07:52.749Z,1.73
2023-04-30T13:10:19.328Z,1.90
2023-04-30T13:12:45.865Z,2.00
2023-04-30T13:15:12.393Z,1.77
2023-04-30T13:17:39.674Z,2.10
2023-04-30T13:20:06.720Z,1.40
2023-04-30T13:22:33.220Z,2.27
2023-04-30T13:25:00.036Z,2.43
2023-04-30T13:27:26.886Z,2.67
2023-04-30T13:29:53.907Z,2.23
2023-04-30T13:32:20.636Z,2.27
2023-04-30T13:34:48.920Z,2.10
2023-04-30T13:37:15.397Z,2.20
2023-04-30T13:39:42.211Z,2.30
2023-04-30T13:42:09.042Z,2.63
2023-04-30T13:44:36.009Z,2.57
2023-04-30T13:47:02.609Z,2.40
2023-04-30T13:49:29.902Z,1.90
2023-04-30T13:51:56.352Z,2.13
2023-04-30T13:54:24.218Z,2.13
2023-04-30T13:56:50.722Z,2.40
2023-04-30T13:59:18.485Z,2.17
2023-04-30T14:01:45.074Z,2.13
2023-04-30T14:04:11.841Z,1.60
2023-04-30T14:06:39.072Z,1.93
2023-04-30T14:09:05.685Z,2.13
2023-04-30T14:11:32.452Z,2.20
2023-04-30T14:13:58.956Z,2.03
2023-04-30T14:16:26.192Z,2.50
2023-04-30T14:18:52.688Z,1.80
2023-04-30T14:21:19.177Z,1.77
2023-04-30T14:23:48.974Z,1.77
2023-04-30T14:26:15.658Z,1.87
2023-04-30T14:28:42.240Z,2.00
2023-04-30T14:31:09.484Z,1.90
2023-04-30T14:33:36.275Z,1.83
2023-04-30T14:36:05.431Z,1.60
2023-04-30T14:38:32.015Z,1.47
2023-04-30T14:40:58.782Z,1.50
2023-04-30T14:43:25.381Z,1.50
2023-04-30T14:45:52.224Z,1.50
2023-04-30T14:48:19.229Z,1.53
2023-04-30T14:50:46.096Z,1.70
2023-04-30T14:53:12.744Z,1.60
2023-04-30T14:55:39.853Z,1.63
2023-04-30T14:58:06.459Z,1.97
2023-04-30T15:00:33.512Z,2.00
2023-04-30T15:03:00.268Z,2.07
2023-04-30T15:05:26.986Z,1.90
2023-04-30T15:07:53.551Z,1.90
2023-04-30T15:10:20.159Z,1.60
2023-04-30T15:12:48.959Z,1.70
2023-04-30T15:15:16.789Z,1.70
2023-04-30T15:17:47.646Z,1.80
2023-04-30T15:20:17.030Z,2.07
2023-04-30T15:22:43.513Z,1.90
2023-04-30T15:25:10.291Z,1.90
2023-04-30T15:27:37.091Z,1.77
2023-04-30T15:30:04.067Z,2.40
2023-04-30T15:32:30.720Z,2.00
2023-04-30T15:35:00.193Z,2.30
2023-04-30T15:37:27.199Z,1.70
2023-04-30T15:39:53.877Z,1.50
2023-04-30T15:42:21.097Z,1.50
2023-04-30T15:44:47.612Z,1.80
2023-04-30T15:47:14.645Z,1.50
2023-04-30T15:49:41.235Z,2.07
2023-04-30T15:52:07.748Z,1.47
2023-04-30T15:54:34.324Z,1.70
2023-04-30T15:57:00.828Z,1.83
2023-04-30T15:59:27.677Z,2.00
2023-04-30T16:01:54.194Z,1.67
2023-04-30T16:04:20.880Z,1.90
2023-04-30T16:06:47.570Z,1.90
2023-04-30T16:09:17.571Z,2.07
2023-04-30T16:11:44.070Z,2.40
2023-04-30T16:14:12.206Z,2.60
2023-04-30T16:16:39.297Z,3.10
2023-04-30T16:19:07.751Z,5.03
2023-04-30T16:21:36.602Z,2.10
2023-04-30T16:24:03.751Z,1.97
2023-04-30T16:26:30.774Z,2.17
2023-04-30T16:28:57.248Z,2.20
2023-04-30T16:31:23.800Z,3.13
2023-04-30T16:33:50.754Z,2.27
2023-04-30T16:36:17.681Z,2.87
2023-04-30T16:38:45.192Z,1.70
2023-04-30T16:41:12.267Z,2.00
2023-04-30T16:43:38.794Z,1.90
2023-04-30T16:46:05.344Z,1.70
2023-04-30T16:48:31.874Z,1.87
2023-04-30T16:50:58.974Z,1.60
2023-04-30T16:53:25.522Z,1.60
2023-04-30T16:55:53.030Z,1.87
2023-04-30T16:58:19.894Z,2.00
2023-04-30T17:00:46.515Z,1.70
2023-04-30T17:03:13.412Z,1.83
2023-04-30T17:05:39.950Z,1.80
2023-04-30T17:08:07.402Z,2.00
2023-04-30T17:10:34.272Z,2.33
2023-04-30T17:13:04.140Z,1.97
2023-04-30T17:15:30.682Z,1.97
2023-04-30T17:17:57.429Z,1.70
2023-04-30T17:20:24.003Z,2.03
2023-04-30T17:22:51.109Z,2.23
2023-04-30T17:25:17.607Z,1.73
2023-04-30T17:27:44.159Z,1.70
2023-04-30T17:30:11.044Z,3.17
2023-04-30T17:32:38.135Z,2.07
2023-04-30T17:35:07.838Z,1.83
2023-04-30T17:37:36.054Z,1.63
2023-04-30T17:40:02.579Z,1.90
2023-04-30T17:42:30.805Z,1.93
2023-04-30T17:44:57.357Z,1.90
2023-04-30T17:47:23.936Z,1.50
2023-04-30T17:49:50.724Z,1.77
2023-04-30T17:52:17.228Z,1.60
2023-04-30T17:54:43.768Z,1.80
2023-04-30T17:57:10.290Z,1.40
2023-04-30T18:02:19.198Z,1.80
2023-04-30T18:04:46.155Z,1.80
2023-04-30T18:07:12.845Z,1.97
2023-04-30T18:09:39.318Z,2.00
2023-04-30T18:12:08.517Z,2.20
2023-04-30T18:14:35.061Z,1.90
2023-04-30T18:17:01.719Z,1.83
2023-04-30T18:19:28.324Z,1.70
2023-04-30T18:21:56.857Z,1.73
2023-04-30T18:24:27.964Z,1.60
2023-04-30T18:26:57.660Z,1.67
2023-04-30T18:29:24.907Z,1.80
2023-04-30T18:31:51.545Z,1.93
2023-04-30T18:34:18.058Z,1.80
2023-04-30T18:36:44.662Z,1.73
2023-04-30T18:39:16.239Z,1.70
2023-04-30T18:41:42.791Z,1.80
2023-04-30T18:44:11.090Z,2.10
2023-04-30T18:46:37.592Z,1.90
2023-04-30T18:49:05.592Z,2.10
2023-04-30T18:51:32.521Z,1.47
2023-04-30T18:53:59.006Z,1.70
2023-04-30T18:56:28.040Z,1.90
2023-04-30T18:58:54.592Z,1.80
2023-04-30T19:01:21.798Z,1.60
2023-04-30T19:03:48.426Z,1.80
2023-04-30T19:06:15.002Z,1.80
2023-04-30T19:08:42.750Z,2.07
2023-04-30T19:11:10.772Z,1.77
2023-04-30T19:13:37.307Z,2.03
2023-04-30T19:16:04.458Z,2.20
2023-04-30T19:18:30.992Z,1.97
2023-04-30T19:20:58.026Z,1.57
2023-04-30T19:23:24.910Z,1.90
2023-04-30T19:25:51.481Z,2.17
2023-04-30T19:28:18.067Z,2.10
2023-04-30T19:30:51.856Z,2.00
2023-04-30T19:33:18.473Z,1.80
2023-04-30T19:35:47.690Z,1.60
2023-04-30T19:38:14.171Z,2.30
2023-04-30T19:40:46.567Z,1.80
2023-04-30T19:43:13.078Z,2.23
2023-04-30T19:45:47.281Z,2.40
2023-04-30T19:48:14.936Z,2.07
2023-04-30T19:50:42.953Z,2.13
2023-04-30T19:53:09.983Z,1.97
2023-04-30T19:55:36.842Z,2.00
2023-04-30T19:58:05.032Z,1.90
2023-04-30T20:00:31.970Z,1.90
2023-04-30T20:03:01.348Z,2.17
2023-04-30T20:05:28.634Z,2.50
2023-04-30T20:07:55.175Z,2.07
2023-04-30T20:10:21.692Z,2.00
2023-04-30T20:12:51.201Z,1.80
2023-04-30T20:15:17.783Z,1.90
2023-04-30T20:17:44.288Z,1.93
2023-04-30T20:20:11.100Z,2.23
2023-04-30T20:22:37.777Z,2.07
2023-04-30T20:25:04.604Z,2.03
2023-04-30T20:27:31.163Z,1.90
2023-04-30T20:29:59.966Z,2.00
2023-04-30T20:32:26.582Z,1.80
2023-04-30T20:34:54.223Z,2.13
2023-04-30T20:37:20.727Z,1.73
2023-04-30T20:39:47.251Z,1.80
2023-04-30T20:42:13.746Z,2.07
2023-04-30T20:44:40.803Z,1.87
2023-04-30T20:47:09.032Z,2.10
2023-04-30T20:49:35.668Z,2.10
2023-04-30T20:52:02.302Z,2.30
2023-04-30T20:54:28.826Z,2.30
2023-04-30T20:56:55.340Z,2.30
2023-04-30T20:59:22.102Z,1.97
2023-04-30T21:01:48.656Z,2.60
2023-04-30T21:04:15.426Z,2.43
2023-04-30T21:06:42.218Z,2.13
2023-04-30T21:09:08.914Z,2.40
2023-04-30T21:11:35.475Z,2.63
2023-04-30T21:14:02.246Z,2.63
2023-04-30T21:16:30.277Z,2.47
2023-04-30T21:18:56.876Z,2.33
2023-04-30T21:21:23.823Z,2.63
2023-04-30T21:23:50.351Z,2.27
2023-04-30T21:26:16.893Z,2.13
2023-04-30T21:28:47.532Z,2.70
2023-04-30T21:31:14.589Z,2.40
2023-04-30T21:33:41.250Z,2.37
2023-04-30T21:36:07.905Z,2.70
2023-04-30T21:38:34.820Z,2.47
2023-04-30T21:41:01.613Z,2.13
2023-04-30T21:43:28.175Z,3.30
2023-04-30T21:45:55.118Z,2.60
2023-04-30T21:48:21.689Z,2.57
2023-04-30T21:50:49.847Z,3.00
2023-04-30T21:53:16.535Z,2.70
2023-04-30T21:55:43.072Z,2.10
2023-04-30T21:58:09.532Z,2.87
2023-04-30T22:00:36.154Z,2.60
2023-04-30T22:03:02.658Z,2.53
2023-04-30T22:05:29.361Z,2.30
2023-04-30T22:07:55.977Z,2.37
2023-04-30T22:10:22.652Z,2.77
2023-04-30T22:12:49.145Z,2.33
2023-04-30T22:15:15.658Z,2.90
2023-04-30T22:17:42.333Z,2.70
2023-04-30T22:20:10.131Z,2.60
2023-04-30T22:22:36.681Z,2.50
2023-04-30T22:25:03.615Z,2.47
2023-04-30T22:27:30.377Z,3.03
2023-04-30T22:29:57.016Z,2.37
2023-04-30T22:32:24.008Z,2.47
2023-04-30T22:34:50.866Z,2.83
2023-04-30T22:37:17.333Z,2.37
2023-04-30T22:39:43.827Z,2.67
2023-04-30T22:42:10.510Z,2.67
2023-04-30T22:44:37.957Z,2.33
2023-04-30T22:47:04.688Z,2.53
2023-04-30T22:49:32.227Z,2.30
2023-04-30T22:51:59.106Z,2.80
2023-04-30T22:54:25.772Z,2.83
2023-04-30T22:56:52.473Z,2.63
2023-04-30T22:59:19.026Z,2.30
2023-04-30T23:01:45.661Z,3.43
2023-04-30T23:04:13.485Z,2.20
2023-04-30T23:06:40.174Z,2.90
2023-04-30T23:09:06.841Z,2.47
2023-04-30T23:11:33.380Z,2.60
2023-04-30T23:14:00.224Z,2.83
2023-04-30T23:16:27.243Z,3.00
2023-04-30T23:18:54.063Z,2.90
2023-04-30T23:21:21.014Z,2.53
2023-04-30T23:23:47.531Z,2.77
2023-04-30T23:26:14.067Z,2.60
2023-04-30T23:28:41.724Z,2.77
2023-04-30T23:31:08.240Z,3.10
2023-04-30T23:33:34.776Z,3.30
2023-04-30T23:36:01.695Z,2.50
2023-04-30T23:38:28.209Z,3.50
2023-04-30T23:40:56.497Z,2.70
2023-04-30T23:43:25.351Z,2.43
2023-04-30T23:45:52.273Z,2.70
2023-04-30T23:48:18.911Z,2.63
2023-04-30T23:50:45.526Z,3.20
2023-04-30T23:53:12.600Z,3.27
2023-04-30T23:55:40.989Z,2.93
2023-04-30T23:58:10.008Z,2.57
